Time;durP1;ratioP1;P1;durP2;ratioP2;P2;SDS_P1;SDS_P2;PMS_P1;PMS_P2;Temp;Humidity;BMP_temperature;BMP_pressure;BME280_temperature;BME280_humidity;BME280_pressure;Samples;Min_cycle;Max_cycle;Signal;HPM_P1;HPM_P2
2024/01/10 00:02:21;;;;;;;63.47;28.80;;;;;;;-7.78;67.83;102203.41;4998010;28;20687;-59
2024/01/10 00:04:50;;;;;;;64.43;30.73;;;;;;;-7.80;67.99;102202.38;4997598;28;20207;-58
2024/01/10 00:07:18;;;;;;;73.13;29.93;;;;;;;-7.80;68.34;102200.75;4995021;28;20203;-62
2024/01/10 00:09:46;;;;;;;70.77;32.63;;;;;;;-7.80;68.89;102202.38;4995371;28;20499;-59
2024/01/10 00:12:14;;;;;;;58.03;26.83;;;;;;;-7.81;68.67;102205.59;4997077;28;20211;-61
2024/01/10 00:14:42;;;;;;;62.53;28.27;;;;;;;-7.80;69.07;102200.75;4991181;28;20204;-61
2024/01/10 00:17:12;;;;;;;65.13;29.93;;;;;;;-7.76;68.64;102201.06;4993236;28;20219;-58
2024/01/10 00:19:40;;;;;;;59.00;27.43;;;;;;;-7.75;68.44;102202.81;5001879;28;20207;-58
2024/01/10 00:22:08;;;;;;;70.00;29.90;;;;;;;-7.80;68.51;102198.25;4994158;28;20200;-60
2024/01/10 00:24:36;;;;;;;65.60;27.43;;;;;;;-7.79;68.79;102197.50;4993586;28;20579;-59
2024/01/10 00:27:06;;;;;;;62.97;28.00;;;;;;;-7.74;68.85;102202.06;4994516;28;20228;-59
2024/01/10 00:29:34;;;;;;;52.67;24.67;;;;;;;-7.73;68.31;102199.75;5000880;28;20207;-58
2024/01/10 00:32:02;;;;;;;59.13;25.07;;;;;;;-7.71;68.10;102207.38;5002357;28;20209;-59
2024/01/10 00:34:32;;;;;;;54.33;24.30;;;;;;;-7.67;67.92;102206.94;4994340;28;20212;-58
2024/01/10 00:37:00;;;;;;;58.60;26.70;;;;;;;-7.68;67.41;102207.69;4993656;28;20745;-59
2024/01/10 00:39:28;;;;;;;52.30;24.23;;;;;;;-7.66;68.16;102201.19;4994061;28;20652;-58
2024/01/10 00:41:56;;;;;;;57.30;24.10;;;;;;;-7.66;66.93;102188.66;4990152;28;20724;-59
2024/01/10 00:44:24;;;;;;;47.93;23.43;;;;;;;-7.61;67.52;102197.53;5003412;28;20605;-58
2024/01/10 00:46:53;;;;;;;56.33;25.27;;;;;;;-7.60;66.81;102204.28;4996316;28;20210;-59
2024/01/10 00:49:21;;;;;;;56.97;24.90;;;;;;;-7.59;66.66;102203.53;4998694;28;20565;-59
2024/01/10 00:51:50;;;;;;;56.93;24.30;;;;;;;-7.59;66.79;102201.03;4996397;28;20250;-59
2024/01/10 00:54:18;;;;;;;59.17;25.77;;;;;;;-7.59;66.77;102196.03;4993413;28;20207;-62
2024/01/10 00:56:46;;;;;;;52.40;25.67;;;;;;;-7.57;66.71;102199.56;4994456;28;20199;-59
2024/01/10 00:59:14;;;;;;;55.60;25.20;;;;;;;-7.61;66.12;102192.50;4993654;28;20211;-61
2024/01/10 01:01:42;;;;;;;55.83;25.97;;;;;;;-7.59;66.53;102186.88;4993285;28;20223;-57
2024/01/10 01:04:10;;;;;;;53.67;24.80;;;;;;;-7.58;66.11;102192.81;4995003;28;20361;-58
2024/01/10 01:06:38;;;;;;;59.40;24.50;;;;;;;-7.58;66.33;102193.69;4995095;28;20779;-60
2024/01/10 01:09:08;;;;;;;56.47;25.60;;;;;;;-7.56;66.41;102196.31;4995918;28;20200;-57
2024/01/10 01:11:36;;;;;;;61.80;26.60;;;;;;;-7.58;66.43;102183.69;4993977;28;20204;-61
2024/01/10 01:14:03;;;;;;;61.63;28.27;;;;;;;-7.57;66.44;102184.56;4992864;28;20251;-60
2024/01/10 01:16:32;;;;;;;65.20;26.97;;;;;;;-7.58;66.28;102178.66;4994471;28;20570;-59
2024/01/10 01:19:00;;;;;;;62.47;26.80;;;;;;;-7.61;66.35;102177.50;4993383;28;20319;-59
2024/01/10 01:21:28;;;;;;;56.40;25.03;;;;;;;-7.61;66.73;102172.50;4998516;28;20591;-57
2024/01/10 01:23:56;;;;;;;63.47;27.77;;;;;;;-7.64;67.14;102172.19;4987727;28;20738;-64
2024/01/10 01:26:26;;;;;;;69.33;28.03;;;;;;;-7.66;66.67;102174.53;4993256;28;20202;-58
2024/01/10 01:28:54;;;;;;;70.67;29.37;;;;;;;-7.69;66.56;102174.25;4995170;28;20204;-61
2024/01/10 01:31:22;;;;;;;64.83;29.33;;;;;;;-7.71;66.85;102165.72;4999218;28;20218;-59
2024/01/10 01:33:50;;;;;;;62.57;28.37;;;;;;;-7.70;67.86;102171.59;4998508;28;20261;-60
2024/01/10 01:36:18;;;;;;;65.77;31.37;;;;;;;-7.75;67.16;102162.78;4994992;28;20685;-62
2024/01/10 01:38:46;;;;;;;68.17;28.90;;;;;;;-7.79;67.95;102161.59;4988330;28;20773;-57
2024/01/10 01:41:15;;;;;;;71.43;31.53;;;;;;;-7.88;68.59;102156.63;4992880;28;20705;-58
2024/01/10 01:43:45;;;;;;;71.67;30.43;;;;;;;-7.91;68.32;102156.31;5004224;28;20242;-58
2024/01/10 01:46:14;;;;;;;71.43;33.30;;;;;;;-7.97;69.42;102155.72;4992930;28;20211;-58
2024/01/10 01:48:43;;;;;;;63.90;29.70;;;;;;;-8.02;68.84;102146.91;4991741;28;20325;-58
2024/01/10 01:51:13;;;;;;;66.77;30.67;;;;;;;-7.96;68.71;102156.59;4993489;28;20274;-58
2024/01/10 01:53:48;;;;;;;75.77;32.80;;;;;;;-7.97;69.39;102153.22;4993054;28;20217;-61
2024/01/10 01:56:17;;;;;;;63.87;30.77;;;;;;;-7.96;67.98;102147.47;4989924;28;20207;-60
2024/01/10 01:58:47;;;;;;;60.20;27.97;;;;;;;-8.02;68.17;102144.41;4996447;28;20318;-59
2024/01/10 02:01:16;;;;;;;65.97;29.97;;;;;;;-7.95;68.70;102148.34;4991554;28;20244;-59
2024/01/10 02:03:47;;;;;;;66.80;27.77;;;;;;;-7.95;68.73;102159.25;4991924;28;20215;-59
2024/01/10 02:06:15;;;;;;;74.17;30.67;;;;;;;-7.94;69.11;102155.13;4999231;28;20686;-62
2024/01/10 02:08:44;;;;;;;69.20;29.53;;;;;;;-7.95;68.35;102158.34;5009609;28;20196;-61
2024/01/10 02:11:12;;;;;;;63.97;29.43;;;;;;;-7.91;68.05;102162.94;4995183;28;20258;-61
2024/01/10 02:13:41;;;;;;;64.20;28.27;;;;;;;-7.90;68.90;102168.06;4991908;28;20670;-63
2024/01/10 02:16:11;;;;;;;67.10;29.30;;;;;;;-7.87;68.68;102167.50;4989058;28;20609;-59
2024/01/10 02:18:39;;;;;;;62.77;30.60;;;;;;;-7.89;68.81;102162.31;5001180;28;20244;-61
2024/01/10 02:21:07;;;;;;;58.30;27.97;;;;;;;-7.88;68.32;102156.63;4994688;28;20294;-60
2024/01/10 02:23:36;;;;;;;67.80;29.63;;;;;;;-7.91;68.00;102151.31;4994474;28;20706;-60
2024/01/10 02:26:06;;;;;;;65.83;29.23;;;;;;;-7.91;68.38;102141.31;5004972;28;20223;-59
2024/01/10 02:28:34;;;;;;;64.03;31.47;;;;;;;-7.89;67.78;102149.81;5002251;28;20207;-60
2024/01/10 02:31:02;;;;;;;60.77;27.87;;;;;;;-7.89;68.28;102144.81;5000145;28;20247;-57
2024/01/10 02:33:32;;;;;;;65.83;27.37;;;;;;;-7.90;67.84;102145.56;4988459;28;20752;-59
2024/01/10 02:36:00;;;;;;;67.50;28.10;;;;;;;-7.90;68.17;102158.06;4988700;28;20556;-58
2024/01/10 02:38:28;;;;;;;57.93;26.93;;;;;;;-7.92;68.45;102152.03;4997408;28;20223;-58
2024/01/10 02:40:57;;;;;;;71.90;33.03;;;;;;;-7.91;68.31;102140.44;4997824;28;20199;-58
2024/01/10 02:43:27;;;;;;;62.47;27.07;;;;;;;-8.03;67.99;102135.09;4997312;28;20254;-61
2024/01/10 02:45:55;;;;;;;59.70;28.73;;;;;;;-7.96;68.09;102141.59;4997144;28;20227;-57
2024/01/10 02:48:23;;;;;;;72.40;32.20;;;;;;;-8.01;68.39;102126.13;4994395;28;20250;-57
2024/01/10 02:50:51;;;;;;;75.23;31.90;;;;;;;-8.01;68.20;102126.13;4992403;28;20263;-57
2024/01/10 02:53:19;;;;;;;68.63;30.83;;;;;;;-8.03;68.53;102123.50;4997657;28;20212;-60
2024/01/10 02:55:49;;;;;;;65.97;30.73;;;;;;;-8.07;68.63;102113.91;5002274;28;20583;-59
2024/01/10 02:58:17;;;;;;;62.73;28.50;;;;;;;-8.05;68.71;102111.59;4991488;28;20262;-59
2024/01/10 03:00:46;;;;;;;63.90;29.20;;;;;;;-8.03;68.89;102113.50;4993549;28;20212;-59
2024/01/10 03:03:14;;;;;;;67.10;28.60;;;;;;;-8.06;69.46;102120.69;4996477;28;20286;-58
2024/01/10 03:05:43;;;;;;;63.40;28.23;;;;;;;-8.03;68.91;102111.00;4995202;28;20200;-62
2024/01/10 03:08:11;;;;;;;69.73;31.27;;;;;;;-8.03;68.67;102102.59;4991231;28;20212;-59
2024/01/10 03:10:39;;;;;;;64.83;30.53;;;;;;;-8.03;69.15;102102.59;4996788;28;20212;-59
2024/01/10 03:13:07;;;;;;;62.13;29.10;;;;;;;-8.02;69.51;102101.88;4997175;28;20208;-61
2024/01/10 03:15:35;;;;;;;57.43;26.67;;;;;;;-8.02;69.27;102102.75;4998195;28;20205;-58
2024/01/10 03:18:05;;;;;;;60.60;28.67;;;;;;;-8.03;69.09;102096.00;4990423;28;20219;-60
2024/01/10 03:20:33;;;;;;;65.30;32.63;;;;;;;-8.03;68.84;102092.56;4995757;28;20208;-58
2024/01/10 03:23:01;;;;;;;69.63;30.00;;;;;;;-8.00;69.23;102094.50;5003750;28;20299;-59
2024/01/10 03:25:29;;;;;;;61.87;31.70;;;;;;;-8.03;68.97;102095.09;4999000;28;20207;-59
2024/01/10 03:27:57;;;;;;;67.13;31.13;;;;;;;-8.07;69.40;102093.03;4998818;28;20238;-61
2024/01/10 03:30:26;;;;;;;69.20;31.50;;;;;;;-8.11;69.17;102080.97;4999856;28;20243;-60
2024/01/10 03:32:54;;;;;;;66.97;28.73;;;;;;;-8.10;69.30;102092.72;4998272;28;20204;-59
2024/01/10 03:35:23;;;;;;;70.30;29.83;;;;;;;-8.10;69.51;102082.72;4995337;28;20208;-64
2024/01/10 03:37:52;;;;;;;73.47;30.57;;;;;;;-8.13;69.61;102087.47;4997910;28;20216;-61
2024/01/10 03:40:20;;;;;;;75.33;35.03;;;;;;;-8.15;69.99;102089.78;4997113;28;20667;-63
2024/01/10 03:42:48;;;;;;;66.30;32.17;;;;;;;-8.20;69.83;102100.09;4994087;28;20613;-64
2024/01/10 03:45:19;;;;;;;61.80;29.87;;;;;;;-8.21;69.94;102093.31;4997144;28;20206;-63
2024/01/10 03:47:51;;;;;;;76.90;30.63;;;;;;;-8.24;69.79;102088.06;4999560;28;20208;-62
2024/01/10 03:50:20;;;;;;;75.03;30.07;;;;;;;-8.21;69.87;102085.81;4997079;28;20275;-63
2024/01/10 03:52:50;;;;;;;65.37;29.77;;;;;;;-8.23;70.07;102088.19;4993269;28;20207;-59
2024/01/10 03:55:18;;;;;;;60.87;29.10;;;;;;;-8.23;70.46;102078.19;4997538;28;20344;-59
2024/01/10 03:57:46;;;;;;;69.80;33.27;;;;;;;-8.24;70.40;102075.56;4997391;28;20261;-60
2024/01/10 04:00:14;;;;;;;72.43;34.90;;;;;;;-8.26;70.13;102076.25;4999333;28;20753;-63
2024/01/10 04:02:42;;;;;;;69.77;30.20;;;;;;;-8.29;70.01;102075.09;4997293;28;20226;-60
2024/01/10 04:05:12;;;;;;;59.87;29.47;;;;;;;-8.28;70.75;102069.38;5002039;28;20213;-59
2024/01/10 04:07:43;;;;;;;64.70;28.70;;;;;;;-8.28;70.75;102062.75;5002490;28;20715;-64
2024/01/10 04:10:14;;;;;;;68.97;31.93;;;;;;;-8.27;70.33;102058.63;4999323;28;20555;-62
2024/01/10 04:12:42;;;;;;;69.97;32.50;;;;;;;-8.28;70.45;102062.75;4988795;28;20307;-59
2024/01/10 04:15:11;;;;;;;73.87;30.67;;;;;;;-8.27;71.02;102053.63;4998796;28;20688;-61
2024/01/10 04:17:39;;;;;;;70.10;31.07;;;;;;;-8.27;70.53;102058.63;4998633;28;20271;-60
2024/01/10 04:20:10;;;;;;;70.80;29.37;;;;;;;-8.27;70.59;102057.00;5001405;28;20327;-60
2024/01/10 04:22:38;;;;;;;69.57;30.40;;;;;;;-8.28;70.42;102051.88;4991341;28;20652;-60
2024/01/10 04:25:08;;;;;;;68.00;29.40;;;;;;;-8.27;70.88;102057.00;4993735;28;20211;-61
2024/01/10 04:27:38;;;;;;;71.07;33.97;;;;;;;-8.27;70.30;102047.00;4998201;28;20204;-60
2024/01/10 04:30:08;;;;;;;66.93;30.57;;;;;;;-8.30;71.10;102046.72;4995581;28;20625;-61
2024/01/10 04:32:36;;;;;;;74.73;32.13;;;;;;;-8.33;70.66;102040.53;4991054;28;20215;-58
2024/01/10 04:35:05;;;;;;;72.30;33.00;;;;;;;-8.34;71.18;102042.16;4997008;28;20207;-58
2024/01/10 04:37:33;;;;;;;68.87;31.03;;;;;;;-8.40;70.88;102044.09;5003051;28;20563;-57
2024/01/10 04:40:00;;;;;;;68.60;30.43;;;;;;;-8.41;71.63;102038.94;4998482;28;20216;-59
2024/01/10 04:42:28;;;;;;;72.67;33.97;;;;;;;-8.46;71.60;102046.00;5004525;28;20659;-64
2024/01/10 04:44:58;;;;;;;61.90;31.90;;;;;;;-8.47;71.86;102049.22;4998838;28;20298;-64
2024/01/10 04:47:25;;;;;;;69.83;34.93;;;;;;;-8.47;71.68;102048.34;4999816;28;20298;-59
2024/01/10 04:49:53;;;;;;;65.00;30.87;;;;;;;-8.46;71.71;102051.00;4994921;28;20201;-59
2024/01/10 04:52:21;;;;;;;68.93;30.43;;;;;;;-8.44;72.02;102049.53;4995322;28;20621;-63
2024/01/10 04:54:49;;;;;;;69.07;28.90;;;;;;;-8.41;71.62;102069.81;5001057;28;20211;-59
2024/01/10 04:57:18;;;;;;;72.63;34.20;;;;;;;-8.39;71.51;102058.38;4993088;28;20629;-60
2024/01/10 04:59:46;;;;;;;66.87;29.23;;;;;;;-8.40;71.92;102061.59;4994286;28;20223;-62
2024/01/10 05:02:15;;;;;;;71.27;29.27;;;;;;;-8.38;71.29;102064.25;4998536;28;20212;-60
2024/01/10 05:04:43;;;;;;;73.53;29.10;;;;;;;-8.37;71.92;102064.34;4999043;28;20671;-58
2024/01/10 05:07:11;;;;;;;66.20;30.20;;;;;;;-8.37;71.99;102066.84;4992032;28;20211;-59
2024/01/10 05:09:39;;;;;;;71.77;30.07;;;;;;;-8.43;72.12;102061.31;4997515;28;20211;-59
2024/01/10 05:12:07;;;;;;;64.77;30.07;;;;;;;-8.40;72.43;102070.69;4995610;28;20655;-62
2024/01/10 05:14:35;;;;;;;66.80;28.70;;;;;;;-8.39;71.85;102068.38;4992254;28;20299;-57
2024/01/10 05:17:03;;;;;;;71.50;30.23;;;;;;;-8.38;72.20;102075.13;4999407;28;20208;-59
2024/01/10 05:19:32;;;;;;;66.03;29.10;;;;;;;-8.39;71.51;102068.38;4994633;28;20224;-62
2024/01/10 05:22:00;;;;;;;75.17;33.83;;;;;;;-8.40;71.68;102068.19;4999395;28;20307;-61
2024/01/10 05:24:31;;;;;;;64.67;28.47;;;;;;;-8.43;71.65;102061.31;4995494;28;20204;-58
2024/01/10 05:26:59;;;;;;;69.27;31.63;;;;;;;-8.44;72.29;102067.03;4996082;28;20239;-59
2024/01/10 05:29:27;;;;;;;74.63;33.10;;;;;;;-8.45;72.13;102066.88;4997490;28;20195;-60
2024/01/10 05:31:55;;;;;;;72.40;32.17;;;;;;;-8.43;72.28;102062.91;4987976;28;20717;-61
2024/01/10 05:34:23;;;;;;;61.13;29.27;;;;;;;-8.46;72.03;102060.13;4995165;28;20210;-60
2024/01/10 05:36:53;;;;;;;67.57;29.37;;;;;;;-8.47;71.87;102059.22;4991131;28;20207;-59
2024/01/10 05:39:21;;;;;;;71.23;30.80;;;;;;;-8.51;72.39;102063.03;4997037;28;20195;-60
2024/01/10 05:41:50;;;;;;;69.63;30.23;;;;;;;-8.53;72.07;102076.16;4999521;28;20219;-59
2024/01/10 05:44:18;;;;;;;72.90;31.57;;;;;;;-8.57;71.71;102059.97;4993540;28;20551;-61
2024/01/10 05:46:47;;;;;;;72.47;32.80;;;;;;;-8.62;72.06;102076.13;4998524;28;20282;-58
2024/01/10 05:49:16;;;;;;;74.57;30.60;;;;;;;-8.62;71.88;102067.75;4992378;28;20212;-57
2024/01/10 05:51:44;;;;;;;66.10;29.77;;;;;;;-8.63;72.27;102074.34;4995585;28;20230;-57
2024/01/10 05:54:13;;;;;;;62.90;28.73;;;;;;;-8.64;72.44;102070.09;4992493;28;20299;-58
2024/01/10 05:56:41;;;;;;;70.43;31.50;;;;;;;-8.63;72.00;102065.97;4992601;28;20580;-52
2024/01/10 05:59:11;;;;;;;71.80;31.27;;;;;;;-8.63;72.07;102066.88;4995263;28;20307;-53
2024/01/10 06:01:39;;;;;;;71.43;28.83;;;;;;;-8.64;71.70;102059.22;4993424;28;20242;-55
2024/01/10 06:04:07;;;;;;;68.67;31.30;;;;;;;-8.65;71.93;102049.94;4998730;28;20199;-53
2024/01/10 06:06:35;;;;;;;75.83;33.33;;;;;;;-8.70;71.96;102046.13;4990030;28;20250;-54
2024/01/10 06:09:04;;;;;;;82.93;33.90;;;;;;;-8.73;72.13;102050.81;4997943;28;20746;-53
2024/01/10 06:11:34;;;;;;;67.80;30.53;;;;;;;-8.72;72.47;102042.63;4990328;28;20699;-56
2024/01/10 06:14:02;;;;;;;70.80;33.73;;;;;;;-8.68;72.72;102042.19;4989889;28;20210;-58
2024/01/10 06:16:32;;;;;;;82.97;38.53;;;;;;;-8.71;72.90;102030.25;4984670;28;20204;-55
2024/01/10 06:19:00;;;;;;;75.37;30.53;;;;;;;-8.73;73.12;102034.22;4988259;28;20210;-58
2024/01/10 06:21:28;;;;;;;76.57;33.70;;;;;;;-8.70;72.94;102034.50;4988177;28;20217;-57
2024/01/10 06:23:56;;;;;;;70.90;32.77;;;;;;;-8.69;73.15;102038.78;4997352;28;20239;-58
2024/01/10 06:26:24;;;;;;;74.23;32.13;;;;;;;-8.66;73.64;102041.56;5000515;28;20266;-62
2024/01/10 06:28:54;;;;;;;74.10;32.83;;;;;;;-8.67;73.15;102039.81;4992716;28;20293;-52
2024/01/10 06:31:23;;;;;;;79.67;37.33;;;;;;;-8.66;72.65;102050.69;5004082;28;20199;-55
2024/01/10 06:33:51;;;;;;;77.80;32.10;;;;;;;-8.69;72.73;102056.25;5001694;28;20211;-56
2024/01/10 06:36:19;;;;;;;82.40;36.37;;;;;;;-8.70;72.78;102053.63;4990406;28;20305;-58
2024/01/10 06:38:47;;;;;;;81.57;36.43;;;;;;;-8.72;73.12;102056.00;4995163;28;20558;-58
2024/01/10 06:41:15;;;;;;;85.67;36.03;;;;;;;-8.72;73.70;102058.47;4995366;28;20213;-57
2024/01/10 06:43:43;;;;;;;74.20;32.43;;;;;;;-8.69;73.55;102067.88;4997852;28;20306;-60
2024/01/10 06:46:13;;;;;;;70.70;34.17;;;;;;;-8.67;74.06;102071.41;4991167;28;20208;-61
2024/01/10 06:48:41;;;;;;;77.53;31.60;;;;;;;-8.66;73.29;102070.69;4997086;28;20250;-58
2024/01/10 06:51:13;;;;;;;75.70;33.43;;;;;;;-8.62;73.83;102067.75;4997556;28;20200;-62
2024/01/10 06:53:41;;;;;;;70.17;31.60;;;;;;;-8.60;73.57;102066.28;4999563;28;20282;-60
2024/01/10 06:56:11;;;;;;;79.83;34.07;;;;;;;-8.58;73.49;102069.78;4993909;28;20231;-64
2024/01/10 06:58:39;;;;;;;71.00;32.57;;;;;;;-8.56;73.09;102058.34;4989288;28;20373;-62
2024/01/10 07:01:13;;;;;;;72.23;35.07;;;;;;;-8.56;73.58;102058.34;4992976;28;20327;-60
2024/01/10 07:03:44;;;;;;;80.93;35.73;;;;;;;-8.55;73.37;102062.59;4998732;28;20296;-62
2024/01/10 07:06:14;;;;;;;84.80;34.73;;;;;;;-8.54;72.74;102066.91;4998324;28;20214;-64
2024/01/10 07:08:44;;;;;;;77.53;34.67;;;;;;;-8.56;73.42;102063.34;4993494;28;20200;-60
2024/01/10 07:11:12;;;;;;;73.90;33.97;;;;;;;-8.51;73.23;102072.16;4996538;28;20335;-62
2024/01/10 07:13:41;;;;;;;68.97;31.40;;;;;;;-8.50;72.88;102076.44;4997419;28;20630;-60
2024/01/10 07:16:09;;;;;;;75.10;32.70;;;;;;;-8.47;72.69;102071.72;4999669;28;20594;-59
2024/01/10 07:18:39;;;;;;;66.57;31.23;;;;;;;-8.43;72.67;102065.41;4997567;28;20675;-59
2024/01/10 07:21:09;;;;;;;74.57;33.83;;;;;;;-8.42;72.91;102078.06;4989127;28;20235;-59
2024/01/10 07:23:38;;;;;;;77.77;33.80;;;;;;;-8.43;73.08;102077.91;4996377;28;20314;-64
2024/01/10 07:26:06;;;;;;;67.90;32.47;;;;;;;-8.38;72.80;102075.13;4994630;28;20211;-61
2024/01/10 07:28:34;;;;;;;74.57;33.17;;;;;;;-8.34;72.57;102074.66;4994784;28;20626;-61
2024/01/10 07:31:02;;;;;;;82.97;37.43;;;;;;;-8.35;72.69;102070.41;4993276;28;21398;-61
2024/01/10 07:33:31;;;;;;;78.10;34.70;;;;;;;-8.33;72.32;102063.91;4993869;28;20262;-59
2024/01/10 07:36:01;;;;;;;75.27;33.43;;;;;;;-8.29;72.43;102070.97;4995884;28;20641;-62
2024/01/10 07:38:30;;;;;;;84.00;38.67;;;;;;;-8.27;72.42;102066.13;4991729;28;20750;-59
2024/01/10 07:40:59;;;;;;;80.00;36.10;;;;;;;-8.27;72.35;102064.50;4993763;28;20274;-61
2024/01/10 07:43:28;;;;;;;87.80;36.20;;;;;;;-8.24;72.40;102060.56;4994436;28;20235;-61
2024/01/10 07:45:56;;;;;;;81.23;34.47;;;;;;;-8.22;71.83;102054.06;5001753;28;20208;-62
2024/01/10 07:48:24;;;;;;;68.50;34.13;;;;;;;-8.17;72.82;102060.38;4990852;28;20634;-59
2024/01/10 07:50:52;;;;;;;75.10;36.67;;;;;;;-8.16;72.52;102060.53;4994036;28;20212;-59
2024/01/10 07:53:22;;;;;;;78.30;34.07;;;;;;;-8.16;72.18;102060.53;4994350;28;20208;-60
2024/01/10 07:55:51;;;;;;;73.83;33.70;;;;;;;-8.13;72.30;102065.84;4994024;28;20203;-60
2024/01/10 07:58:19;;;;;;;74.47;36.43;;;;;;;-8.11;72.28;102060.97;4993129;28;20286;-60
2024/01/10 08:00:47;;;;;;;81.67;34.67;;;;;;;-8.08;72.32;102069.63;4995123;28;20645;-64
2024/01/10 08:03:15;;;;;;;87.97;35.07;;;;;;;-8.06;72.36;102074.81;4994975;28;20223;-58
2024/01/10 08:05:43;;;;;;;72.73;34.23;;;;;;;-8.05;72.47;102069.06;4995849;28;20208;-60
2024/01/10 08:08:13;;;;;;;71.33;35.10;;;;;;;-8.05;72.51;102066.56;4997347;28;20203;-61
2024/01/10 08:10:43;;;;;;;72.83;34.87;;;;;;;-8.05;72.70;102066.56;4993816;28;20219;-60
2024/01/10 08:13:11;;;;;;;75.10;32.00;;;;;;;-8.03;72.69;102060.06;4990813;28;20200;-63
2024/01/10 08:15:39;;;;;;;73.03;33.63;;;;;;;-8.02;73.10;102061.84;4997372;28;20693;-58
2024/01/10 08:18:10;;;;;;;83.70;37.17;;;;;;;-8.02;73.16;102061.84;4991749;28;20232;-63
2024/01/10 08:20:38;;;;;;;74.67;34.83;;;;;;;-7.99;73.07;102073.75;4996395;28;20255;-64
2024/01/10 08:23:06;;;;;;;84.40;36.73;;;;;;;-7.96;72.92;102066.53;4989560;28;20235;-61
2024/01/10 08:25:34;;;;;;;80.47;33.77;;;;;;;-7.97;72.58;102060.66;4993540;28;20200;-62
2024/01/10 08:28:04;;;;;;;86.80;40.27;;;;;;;-7.92;72.53;102066.97;4996126;28;20247;-59
2024/01/10 08:30:32;;;;;;;77.83;34.87;;;;;;;-7.94;73.02;102060.06;4996061;28;20212;-60
2024/01/10 08:33:00;;;;;;;80.37;36.93;;;;;;;-7.87;73.10;102062.41;4989111;28;20208;-66
2024/01/10 08:35:28;;;;;;;82.03;35.33;;;;;;;-7.83;73.24;102065.34;4993468;28;20212;-61
2024/01/10 08:37:56;;;;;;;82.60;37.17;;;;;;;-7.80;72.86;102055.63;4992721;28;20746;-62
2024/01/10 08:40:25;;;;;;;78.37;37.83;;;;;;;-7.75;72.73;102056.06;4997880;28;20731;-62
2024/01/10 08:42:53;;;;;;;87.70;39.13;;;;;;;-7.79;72.58;102049.88;4995071;28;20582;-58
2024/01/10 08:45:23;;;;;;;85.13;37.30;;;;;;;-7.83;73.24;102050.34;4993189;28;20220;-62
2024/01/10 08:47:53;;;;;;;87.13;40.00;;;;;;;-7.81;73.01;102041.34;4993390;28;20204;-61
2024/01/10 08:50:21;;;;;;;79.30;34.80;;;;;;;-7.74;72.99;102044.41;4996577;28;20702;-58
2024/01/10 08:52:50;;;;;;;86.73;40.97;;;;;;;-7.73;72.77;102046.19;5003175;28;20263;-60
2024/01/10 08:55:18;;;;;;;85.83;37.70;;;;;;;-7.68;73.39;102053.38;4998749;28;21342;-60
2024/01/10 08:57:46;;;;;;;75.17;34.23;;;;;;;-7.62;73.61;102058.97;4994461;28;20262;-57
2024/01/10 09:00:16;;;;;;;73.57;35.37;;;;;;;-7.56;73.13;102057.03;4994996;28;20200;-57
2024/01/10 09:02:45;;;;;;;82.40;35.33;;;;;;;-7.51;73.34;102059.06;4992735;28;20326;-59
2024/01/10 09:05:13;;;;;;;79.10;35.73;;;;;;;-7.42;73.47;102079.97;4993329;28;20208;-57
2024/01/10 09:07:42;;;;;;;85.07;40.77;;;;;;;-7.40;73.02;102088.50;4992042;28;20204;-60
2024/01/10 09:10:10;;;;;;;75.50;34.07;;;;;;;-7.36;73.13;102100.59;4994614;28;20692;-60
2024/01/10 09:12:43;;;;;;;79.90;36.50;;;;;;;-7.31;73.14;102096.88;4988135;28;20196;-59
2024/01/10 09:15:13;;;;;;;73.50;34.90;;;;;;;-7.25;72.57;102089.03;4987705;28;20270;-57
2024/01/10 09:17:42;;;;;;;82.37;35.83;;;;;;;-7.23;72.35;102077.53;5001375;28;20670;-59
2024/01/10 09:20:12;;;;;;;79.83;40.10;;;;;;;-7.21;72.70;102073.56;4996900;28;20215;-59
2024/01/10 09:22:40;;;;;;;91.50;37.93;;;;;;;-7.20;72.88;102067.81;5000014;28;20255;-58
2024/01/10 09:25:09;;;;;;;88.90;35.57;;;;;;;-7.13;72.87;102072.66;4990585;28;20204;-61
2024/01/10 09:27:37;;;;;;;80.47;37.73;;;;;;;-7.08;73.16;102061.41;5003371;28;20218;-64
2024/01/10 09:30:08;;;;;;;78.10;34.30;;;;;;;-6.99;73.50;102061.38;4997794;28;20697;-58
2024/01/10 09:32:37;;;;;;;82.73;36.37;;;;;;;-6.92;72.69;102056.16;4990346;28;20219;-59
2024/01/10 09:35:06;;;;;;;75.07;36.43;;;;;;;-6.84;72.50;102068.66;4988729;28;20208;-62
2024/01/10 09:37:35;;;;;;;81.73;36.47;;;;;;;-6.81;72.24;102056.41;4992816;28;20204;-61
2024/01/10 09:40:04;;;;;;;78.70;37.00;;;;;;;-6.79;72.16;102064.06;4993547;28;20379;-60
2024/01/10 09:42:33;;;;;;;78.50;37.37;;;;;;;-6.77;72.08;102072.59;4992589;28;20255;-61
2024/01/10 09:45:03;;;;;;;80.50;36.93;;;;;;;-6.76;72.30;102064.34;4991815;28;20708;-58
2024/01/10 09:47:32;;;;;;;82.37;35.90;;;;;;;-6.72;72.34;102056.34;4996170;28;20298;-62
2024/01/10 09:50:03;;;;;;;78.20;35.90;;;;;;;-6.67;72.61;102060.13;4995552;28;20218;-62
2024/01/10 09:52:40;;;;;;;81.63;37.03;;;;;;;-6.60;72.55;102059.06;4989713;28;20561;-59
2024/01/10 09:55:10;;;;;;;82.03;40.33;;;;;;;-6.57;72.06;102056.84;4997760;28;20210;-68
2024/01/10 09:57:38;;;;;;;85.97;38.03;;;;;;;-6.56;72.53;102063.59;4991006;28;20200;-60
2024/01/10 10:00:10;;;;;;;75.93;37.50;;;;;;;-6.48;72.36;102066.78;4994095;28;20591;-58
2024/01/10 10:02:40;;;;;;;78.57;39.17;;;;;;;-6.43;72.65;102065.59;4991778;28;20676;-59
2024/01/10 10:05:13;;;;;;;84.83;39.17;;;;;;;-6.40;72.60;102065.88;4988340;28;20200;-60
2024/01/10 10:07:47;;;;;;;81.03;40.00;;;;;;;-6.37;72.51;102057.00;4989178;28;20218;-58
2024/01/10 10:10:15;;;;;;;87.43;38.40;;;;;;;-6.39;72.71;102050.94;4989795;28;20543;-62
2024/01/10 10:12:44;;;;;;;75.97;37.83;;;;;;;-6.30;72.98;102052.50;4991614;28;20215;-60
2024/01/10 10:15:14;;;;;;;86.20;35.90;;;;;;;-6.24;72.75;102043.00;4990506;28;20334;-63
2024/01/10 10:17:47;;;;;;;90.33;43.37;;;;;;;-6.23;72.16;102044.75;4991365;28;20601;-59
2024/01/10 10:20:21;;;;;;;89.00;40.53;;;;;;;-6.26;72.55;102047.00;4988216;28;20195;-60
2024/01/10 10:23:01;;;;;;;86.73;37.70;;;;;;;-6.23;73.09;102044.75;4997081;28;20298;-58
2024/01/10 10:25:32;;;;;;;80.83;36.77;;;;;;;-6.24;72.64;102040.50;4989756;28;20669;-61
2024/01/10 10:28:02;;;;;;;80.47;36.47;;;;;;;-6.25;73.04;102031.22;4992177;28;20207;-61
2024/01/10 10:30:32;;;;;;;77.33;37.53;;;;;;;-6.19;73.08;102036.75;4988417;28;20683;-60
2024/01/10 10:33:02;;;;;;;79.83;38.57;;;;;;;-6.21;73.15;102018.19;4988416;28;20254;-60
2024/01/10 10:35:30;;;;;;;90.63;39.00;;;;;;;-6.14;73.09;102023.88;4986225;28;20210;-60
2024/01/10 10:38:10;;;;;;;83.27;37.50;;;;;;;-6.09;73.15;102029.28;4993853;28;20557;-61
2024/01/10 10:40:38;;;;;;;80.50;36.97;;;;;;;-6.04;73.08;102028.03;4994173;28;20199;-60
2024/01/10 10:43:13;;;;;;;78.53;36.73;;;;;;;-5.98;73.21;102023.56;4996516;28;20302;-65
2024/01/10 10:45:47;;;;;;;88.47;40.03;;;;;;;-5.91;73.21;102020.81;4999955;28;20717;-64
2024/01/10 10:48:19;;;;;;;75.37;36.60;;;;;;;-5.85;73.21;102030.50;4993880;28;20199;-61
2024/01/10 10:51:00;;;;;;;76.33;36.67;;;;;;;-5.79;73.29;102015.94;4994894;28;20578;-60
2024/01/10 10:53:31;;;;;;;84.50;37.13;;;;;;;-5.73;73.00;102006.44;4998848;28;20200;-59
2024/01/10 10:56:01;;;;;;;77.73;38.00;;;;;;;-5.73;72.81;102000.56;4993963;28;20219;-58
2024/01/10 10:58:29;;;;;;;86.20;40.27;;;;;;;-5.75;72.80;102002.91;4993485;28;20236;-58
2024/01/10 11:00:58;;;;;;;77.50;38.33;;;;;;;-5.75;73.24;102000.41;4997572;28;20230;-58
2024/01/10 11:03:29;;;;;;;77.47;38.90;;;;;;;-5.77;73.37;101996.03;4998548;28;20215;-59
2024/01/10 11:05:59;;;;;;;81.03;41.73;;;;;;;-5.79;73.35;101995.88;4998216;28;20200;-57
2024/01/10 11:08:31;;;;;;;74.27;37.90;;;;;;;-5.80;73.47;101988.22;5002841;28;20263;-58
2024/01/10 11:11:01;;;;;;;80.67;36.17;;;;;;;-5.77;73.87;101993.50;4998658;28;20227;-60
2024/01/10 11:13:39;;;;;;;84.40;38.73;;;;;;;-5.77;73.96;101994.38;4998445;28;20212;-59
2024/01/10 11:16:35;;;;;;;79.90;37.70;;;;;;;-5.76;74.09;101993.63;4998276;28;20659;-60
2024/01/10 11:19:26;;;;;;;76.50;36.57;;;;;;;-5.68;74.73;101989.25;4992388;28;20689;-60